Time;durP1;ratioP1;P1;durP2;ratioP2;P2;SDS_P1;SDS_P2;PMS_P1;PMS_P2;Temp;Humidity;BMP_temperature;BMP_pressure;BME280_temperature;BME280_humidity;BME280_pressure;Samples;Min_cycle;Max_cycle;Signal;HPM_P1;HPM_P2
2022/10/25 00:01:27;;;;;;;2.75;0.90;;;18.10;46.60;;;;;;5072774;28;20201;-39
2022/10/25 00:04:01;;;;;;;2.40;1.20;;;18.10;46.50;;;;;;5071991;28;20278;-40
2022/10/25 00:06:31;;;;;;;3.50;1.50;;;18.20;46.50;;;;;;5071501;28;20690;-41
2022/10/25 00:09:02;;;;;;;4.32;1.67;;;18.20;46.50;;;;;;5072374;28;20198;-38
2022/10/25 00:11:35;;;;;;;5.25;2.05;;;18.20;46.50;;;;;;5071685;28;20202;-45
2022/10/25 00:14:07;;;;;;;2.80;1.50;;;18.20;46.50;;;;;;5071354;28;20202;-38
2022/10/25 00:16:39;;;;;;;2.92;1.67;;;18.20;46.60;;;;;;5071691;28;20218;-42
2022/10/25 00:19:10;;;;;;;3.25;1.58;;;18.20;46.60;;;;;;5071414;28;20194;-46
2022/10/25 00:21:41;;;;;;;3.45;1.83;;;18.20;46.50;;;;;;5071248;28;20198;-37
2022/10/25 00:24:12;;;;;;;2.95;1.77;;;18.30;46.50;;;;;;5071770;28;20612;-39
2022/10/25 00:26:45;;;;;;;3.60;1.80;;;18.30;46.50;;;;;;5071834;28;20272;-39
2022/10/25 00:29:16;;;;;;;4.38;2.20;;;18.30;46.60;;;;;;5071694;28;20202;-45
2022/10/25 00:31:46;;;;;;;4.05;2.20;;;18.30;46.60;;;;;;5071897;28;20199;-37
2022/10/25 00:34:17;;;;;;;4.50;2.47;;;18.30;46.60;;;;;;5070801;28;20207;-37
2022/10/25 00:36:48;;;;;;;5.60;2.63;;;18.30;46.50;;;;;;5071484;28;20218;-40
2022/10/25 00:39:18;;;;;;;5.82;3.13;;;18.30;46.50;;;;;;5071345;28;20205;-42
2022/10/25 00:41:51;;;;;;;5.38;2.90;;;18.30;46.50;;;;;;5071522;28;20198;-40
2022/10/25 00:44:49;;;;;;;6.55;3.08;;;18.30;46.50;;;;;;5071412;28;20191;-37
2022/10/25 00:47:42;;;;;;;6.28;3.08;;;18.30;46.50;;;;;;5070683;28;20221;-43
2022/10/25 00:50:31;;;;;;;5.18;2.95;;;18.30;46.40;;;;;;5071451;28;20588;-37
2022/10/25 00:53:09;;;;;;;4.88;2.90;;;18.40;46.40;;;;;;5071709;28;20289;-37
2022/10/25 00:55:41;;;;;;;5.40;3.17;;;18.30;46.40;;;;;;5070791;28;20194;-38
2022/10/25 00:58:17;;;;;;;7.28;3.25;;;18.40;46.50;;;;;;5071266;28;20225;-37
2022/10/25 01:00:49;;;;;;;5.53;3.03;;;18.40;46.50;;;;;;5071024;28;20659;-44
2022/10/25 01:03:22;;;;;;;4.53;2.55;;;18.40;46.60;;;;;;5070809;28;20707;-44
2022/10/25 01:05:53;;;;;;;3.75;2.70;;;18.40;46.50;;;;;;5071045;28;20272;-40
2022/10/25 01:08:25;;;;;;;6.43;2.78;;;18.40;46.50;;;;;;5070701;28;20234;-41
2022/10/25 01:10:56;;;;;;;5.03;2.70;;;18.40;46.50;;;;;;5070735;28;20198;-40
2022/10/25 01:13:28;;;;;;;4.57;2.97;;;18.40;46.40;;;;;;5070553;28;20647;-42
2022/10/25 01:16:09;;;;;;;4.05;2.47;;;18.40;46.40;;;;;;5071232;28;20198;-39
2022/10/25 01:18:46;;;;;;;5.95;2.90;;;18.40;46.40;;;;;;5070737;28;20615;-38
2022/10/25 01:21:42;;;;;;;4.72;2.85;;;18.40;46.40;;;;;;5071295;28;20205;-37
2022/10/25 01:24:52;;;;;;;4.72;2.85;;;18.40;46.50;;;;;;5070969;28;20602;-42
2022/10/25 01:27:57;;;;;;;4.50;2.75;;;18.40;46.40;;;;;;5070661;28;20225;-38
2022/10/25 01:30:35;;;;;;;4.93;2.72;;;18.40;46.40;;;;;;5044034;28;20651;-40
2022/10/25 01:33:18;;;;;;;4.28;2.38;;;18.40;46.40;;;;;;5050794;28;20199;-37
2022/10/25 01:35:56;;;;;;;5.10;2.88;;;18.40;46.40;;;;;;5050208;28;20230;-39
2022/10/25 01:38:40;;;;;;;4.82;2.70;;;18.40;46.30;;;;;;5050346;28;20206;-40
2022/10/25 01:41:19;;;;;;;6.18;2.80;;;18.40;46.30;;;;;;5050626;28;20195;-42
2022/10/25 01:44:01;;;;;;;3.65;2.40;;;18.40;46.30;;;;;;5050042;28;20257;-42
2022/10/25 01:46:38;;;;;;;5.28;2.75;;;18.40;46.40;;;;;;5050627;28;20232;-45
2022/10/25 01:49:16;;;;;;;5.18;2.70;;;18.40;46.40;;;;;;5050569;28;20248;-37
2022/10/25 01:51:46;;;;;;;6.40;3.58;;;18.40;46.30;;;;;;5050550;28;20594;-37
2022/10/25 01:54:25;;;;;;;7.38;3.30;;;18.40;46.30;;;;;;5050973;28;20195;-37
2022/10/25 01:57:14;;;;;;;6.75;3.40;;;18.40;46.30;;;;;;5050358;28;20794;-42
2022/10/25 02:00:03;;;;;;;5.32;3.10;;;18.40;46.40;;;;;;5066934;28;20210;-40
2022/10/25 02:02:40;;;;;;;7.07;3.30;;;18.40;46.30;;;;;;5070370;28;20195;-43
2022/10/25 02:05:18;;;;;;;9.23;3.63;;;18.40;46.40;;;;;;5069677;28;20681;-40
2022/10/25 02:08:00;;;;;;;6.63;3.28;;;18.40;46.40;;;;;;5070209;28;20658;-40
2022/10/25 02:10:37;;;;;;;6.95;3.63;;;18.40;46.40;;;;;;5070855;28;20206;-39
2022/10/25 02:13:18;;;;;;;7.63;3.47;;;18.40;46.40;;;;;;5070058;28;20634;-37
2022/10/25 02:15:57;;;;;;;6.78;3.22;;;18.40;46.40;;;;;;5070869;28;20545;-44
2022/10/25 02:18:31;;;;;;;7.60;3.10;;;18.50;46.40;;;;;;5070310;28;20563;-40
2022/10/25 02:21:05;;;;;;;7.70;3.63;;;18.50;46.40;;;;;;5070437;28;20221;-37
2022/10/25 02:23:37;;;;;;;5.95;2.92;;;18.50;46.40;;;;;;5070060;28;20248;-37
2022/10/25 02:26:10;;;;;;;7.00;3.20;;;18.40;46.40;;;;;;5069981;28;20235;-37
2022/10/25 02:28:42;;;;;;;6.78;3.10;;;18.40;46.40;;;;;;5070133;28;20253;-45
2022/10/25 02:31:16;;;;;;;6.75;3.35;;;18.50;46.40;;;;;;5070292;28;20256;-37
2022/10/25 02:33:48;;;;;;;6.70;3.17;;;18.50;46.40;;;;;;5069946;28;20261;-41
2022/10/25 02:36:23;;;;;;;7.35;3.00;;;18.40;46.30;;;;;;5070399;28;20269;-40
2022/10/25 02:38:56;;;;;;;8.98;3.70;;;18.50;46.40;;;;;;5074339;28;20194;-37
2022/10/25 02:41:27;;;;;;;6.38;2.90;;;18.50;46.30;;;;;;5074160;28;20201;-37
2022/10/25 02:43:57;;;;;;;5.15;2.53;;;18.50;46.30;;;;;;5073782;28;20195;-40
2022/10/25 02:46:28;;;;;;;4.22;2.80;;;18.50;46.30;;;;;;5073628;28;20234;-37
2022/10/25 02:48:58;;;;;;;3.97;2.65;;;18.50;46.30;;;;;;5073482;28;20623;-37
2022/10/25 02:51:31;;;;;;;5.60;2.33;;;18.50;46.30;;;;;;5072644;28;20252;-40
2022/10/25 02:54:01;;;;;;;5.15;2.78;;;18.50;46.30;;;;;;5073390;28;20191;-40
2022/10/25 02:56:32;;;;;;;5.40;2.95;;;18.50;46.30;;;;;;5074361;28;20284;-37
2022/10/25 02:59:03;;;;;;;6.18;2.63;;;18.50;46.30;;;;;;5073369;28;20191;-37
2022/10/25 03:01:33;;;;;;;5.35;2.72;;;18.50;46.20;;;;;;5070915;28;20200;-44
2022/10/25 03:04:04;;;;;;;5.50;2.90;;;18.60;46.30;;;;;;5072916;28;20224;-42
2022/10/25 03:06:37;;;;;;;7.75;3.20;;;18.50;46.20;;;;;;5072768;28;20276;-41
2022/10/25 03:09:07;;;;;;;5.10;2.55;;;18.60;46.30;;;;;;5072765;28;20195;-45
2022/10/25 03:11:38;;;;;;;6.25;2.80;;;18.60;46.20;;;;;;5073481;28;20207;-38
2022/10/25 03:14:08;;;;;;;4.85;2.83;;;18.60;46.30;;;;;;5073427;28;20203;-39
2022/10/25 03:16:39;;;;;;;5.20;2.50;;;18.60;46.30;;;;;;5072699;28;20214;-40
2022/10/25 03:19:10;;;;;;;6.18;2.65;;;18.60;46.30;;;;;;5073241;28;20191;-43
2022/10/25 03:21:42;;;;;;;6.22;3.08;;;18.70;46.30;;;;;;5072339;28;20194;-41
2022/10/25 03:24:13;;;;;;;5.18;2.70;;;18.70;46.30;;;;;;5072771;28;20199;-41
2022/10/25 03:26:43;;;;;;;6.80;2.85;;;18.70;46.20;;;;;;5072500;28;20702;-47
2022/10/25 03:29:14;;;;;;;4.53;2.13;;;18.70;46.20;;;;;;5072981;28;20199;-43
2022/10/25 03:31:44;;;;;;;4.60;2.28;;;18.70;46.20;;;;;;5072645;28;20245;-46
2022/10/25 03:34:15;;;;;;;5.00;2.72;;;18.80;46.30;;;;;;5073212;28;20195;-41
2022/10/25 03:36:47;;;;;;;6.03;2.28;;;18.80;46.30;;;;;;5072607;28;20272;-37
2022/10/25 03:39:18;;;;;;;4.65;2.47;;;18.80;46.20;;;;;;5072779;28;20604;-43
2022/10/25 03:41:49;;;;;;;3.72;2.42;;;18.90;46.20;;;;;;5072486;28;20256;-37
2022/10/25 03:44:19;;;;;;;3.97;2.30;;;18.90;46.20;;;;;;5072144;28;20202;-37
2022/10/25 03:46:50;;;;;;;4.65;2.83;;;19.00;46.20;;;;;;5072228;28;20403;-43
2022/10/25 03:49:21;;;;;;;4.47;2.47;;;19.00;46.20;;;;;;5071384;28;20240;-37
2022/10/25 03:51:53;;;;;;;4.45;2.40;;;19.10;46.20;;;;;;5072396;28;20195;-39
2022/10/25 03:54:24;;;;;;;3.60;2.40;;;19.10;46.10;;;;;;5072721;28;20825;-49
2022/10/25 03:56:54;;;;;;;2.95;2.10;;;19.10;46.10;;;;;;5073271;28;20268;-40
2022/10/25 03:59:25;;;;;;;3.30;2.15;;;19.20;46.10;;;;;;5071732;28;20205;-38
2022/10/25 04:01:56;;;;;;;4.95;2.53;;;19.30;46.10;;;;;;5072901;28;20221;-39
2022/10/25 04:04:26;;;;;;;4.25;2.65;;;19.30;46.10;;;;;;5071826;28;20203;-46
2022/10/25 04:06:59;;;;;;;3.95;2.30;;;19.30;46.10;;;;;;5072327;28;20226;-37
2022/10/25 04:09:29;;;;;;;4.20;2.67;;;19.40;46.20;;;;;;5071271;28;20198;-40
2022/10/25 04:12:00;;;;;;;4.20;2.20;;;19.40;46.20;;;;;;5052420;28;20206;-41
2022/10/25 04:14:30;;;;;;;6.18;2.22;;;19.40;46.20;;;;;;5052366;28;20208;-41
2022/10/25 04:17:01;;;;;;;3.85;1.85;;;19.50;45.90;;;;;;5051520;28;20223;-39
2022/10/25 04:19:32;;;;;;;6.00;1.77;;;19.50;45.80;;;;;;5052299;28;20187;-47
2022/10/25 04:22:04;;;;;;;4.32;1.95;;;19.50;45.80;;;;;;5051573;28;20563;-42
2022/10/25 04:24:35;;;;;;;5.50;2.03;;;19.50;45.90;;;;;;5051582;28;20199;-44
2022/10/25 04:27:05;;;;;;;4.70;1.77;;;19.50;45.90;;;;;;5051589;28;20234;-43
2022/10/25 04:29:36;;;;;;;4.20;1.90;;;19.50;45.90;;;;;;5065652;28;20203;-38
2022/10/25 04:32:07;;;;;;;5.32;1.83;;;19.50;45.80;;;;;;5071816;28;20672;-39
2022/10/25 04:34:38;;;;;;;4.22;1.77;;;19.50;45.80;;;;;;5072082;28;20263;-42
2022/10/25 04:37:10;;;;;;;4.72;1.70;;;19.60;45.80;;;;;;5071374;28;20759;-46
2022/10/25 04:39:41;;;;;;;3.60;1.55;;;19.60;45.80;;;;;;5071434;28;20199;-43
2022/10/25 04:42:12;;;;;;;4.03;1.90;;;19.60;45.80;;;;;;5071354;28;20206;-39
2022/10/25 04:44:42;;;;;;;3.65;1.80;;;19.60;45.70;;;;;;5071001;28;20227;-41
2022/10/25 04:47:13;;;;;;;4.65;2.10;;;19.60;45.80;;;;;;5071631;28;20747;-41
2022/10/25 04:49:44;;;;;;;3.92;2.05;;;19.60;45.80;;;;;;5071006;28;20229;-44
2022/10/25 04:52:16;;;;;;;7.35;2.15;;;19.60;45.70;;;;;;5070812;28;20193;-43
2022/10/25 04:54:47;;;;;;;4.43;1.77;;;19.70;45.80;;;;;;5070746;28;20195;-46
2022/10/25 04:57:17;;;;;;;7.10;1.98;;;19.70;45.80;;;;;;5071763;28;20218;-41
2022/10/25 04:59:48;;;;;;;3.92;1.70;;;19.70;46.40;;;;;;5067424;28;20264;-42
2022/10/25 05:02:18;;;;;;;2.45;1.55;;;19.70;45.80;;;;;;5070891;28;20194;-40
2022/10/25 05:04:49;;;;;;;3.42;1.80;;;19.70;45.80;;;;;;5070107;28;20249;-39
2022/10/25 05:07:22;;;;;;;4.35;1.60;;;19.70;45.80;;;;;;5070794;28;20288;-39
2022/10/25 05:09:53;;;;;;;4.03;1.75;;;19.70;46.40;;;;;;5070128;28;20190;-44
2022/10/25 05:12:25;;;;;;;3.95;1.95;;;19.80;45.80;;;;;;5071020;28;20616;-40
2022/10/25 05:14:56;;;;;;;3.45;1.67;;;19.70;45.80;;;;;;5069808;28;20547;-38
2022/10/25 05:17:27;;;;;;;3.78;1.58;;;19.80;45.80;;;;;;5067967;28;20215;-40
2022/10/25 05:19:57;;;;;;;3.40;1.55;;;19.80;45.80;;;;;;5068280;28;20195;-45
2022/10/25 05:22:30;;;;;;;3.00;1.63;;;19.80;45.80;;;;;;5068409;28;20202;-38
2022/10/25 05:25:00;;;;;;;3.35;1.60;;;19.80;45.80;;;;;;5068719;28;20206;-43
2022/10/25 05:27:31;;;;;;;3.90;1.35;;;19.80;45.80;;;;;;5068252;28;20230;-41
2022/10/25 05:30:02;;;;;;;3.72;1.40;;;19.80;45.80;;;;;;5069725;28;20210;-41
2022/10/25 05:32:33;;;;;;;2.75;1.45;;;19.80;45.80;;;;;;5069741;28;20218;-38
2022/10/25 05:35:04;;;;;;;2.85;1.40;;;19.80;45.80;;;;;;5069929;28;20191;-41
2022/10/25 05:37:36;;;;;;;4.32;1.85;;;19.80;45.80;;;;;;5069831;28;20217;-43
2022/10/25 05:40:08;;;;;;;3.20;1.38;;;19.90;45.80;;;;;;5069994;28;20194;-41
2022/10/25 05:42:38;;;;;;;3.78;1.55;;;19.90;45.80;;;;;;5069269;28;20203;-46
2022/10/25 05:45:10;;;;;;;3.05;1.40;;;19.90;45.80;;;;;;5069617;28;20202;-38
2022/10/25 05:47:40;;;;;;;3.53;1.52;;;19.90;45.70;;;;;;5069622;28;20339;-40
2022/10/25 05:50:11;;;;;;;4.40;1.60;;;19.90;45.70;;;;;;5069647;28;20191;-39
2022/10/25 05:52:47;;;;;;;3.28;1.70;;;19.90;45.70;;;;;;5069492;28;20194;-43
2022/10/25 05:55:18;;;;;;;2.60;1.40;;;20.00;45.70;;;;;;5069656;28;20281;-41
2022/10/25 05:57:53;;;;;;;2.88;1.60;;;20.00;45.80;;;;;;5069921;28;20297;-43
2022/10/25 06:00:24;;;;;;;4.00;1.80;;;20.00;45.70;;;;;;5049734;28;20269;-42
2022/10/25 06:02:54;;;;;;;2.90;1.35;;;20.00;45.70;;;;;;5049746;28;20740;-41
2022/10/25 06:05:25;;;;;;;2.75;1.30;;;20.00;45.80;;;;;;5050011;28;20283;-51
2022/10/25 06:07:58;;;;;;;2.67;1.38;;;20.10;45.90;;;;;;5049319;28;20581;-38
2022/10/25 06:10:29;;;;;;;3.42;1.25;;;20.10;45.90;;;;;;5058697;28;20201;-46
2022/10/25 06:13:00;;;;;;;4.82;1.70;;;20.10;46.00;;;;;;5073400;28;20198;-45
2022/10/25 06:15:31;;;;;;;2.13;1.25;;;20.10;46.10;;;;;;5073824;28;20195;-39
2022/10/25 06:18:01;;;;;;;3.35;1.40;;;20.20;46.10;;;;;;5074440;28;20230;-39
2022/10/25 06:20:32;;;;;;;3.30;1.60;;;20.20;46.20;;;;;;5074258;28;20194;-41
2022/10/25 06:23:05;;;;;;;5.15;1.42;;;20.20;46.30;;;;;;5073429;28;20194;-40
2022/10/25 06:25:35;;;;;;;4.50;1.70;;;20.20;46.90;;;;;;5074086;28;20197;-39
2022/10/25 06:28:08;;;;;;;2.33;1.10;;;20.20;46.30;;;;;;5073392;28;20305;-45
2022/10/25 06:30:38;;;;;;;3.17;1.25;;;20.20;46.30;;;;;;5074250;28;20667;-37
2022/10/25 06:33:09;;;;;;;3.33;1.23;;;20.20;46.30;;;;;;5073732;28;20195;-37
2022/10/25 06:35:40;;;;;;;2.63;1.38;;;20.30;46.30;;;;;;5073940;28;20668;-38
2022/10/25 06:38:12;;;;;;;1.90;1.13;;;20.20;46.30;;;;;;5073325;28;20226;-38
2022/10/25 06:40:43;;;;;;;2.83;1.42;;;20.20;46.30;;;;;;5073188;28;20203;-39
2022/10/25 06:43:14;;;;;;;3.30;1.55;;;20.30;46.40;;;;;;5074227;28;20195;-38
2022/10/25 06:45:45;;;;;;;2.55;1.27;;;20.20;46.30;;;;;;5074105;28;20238;-40
2022/10/25 06:48:15;;;;;;;2.58;1.20;;;20.30;46.30;;;;;;5073525;28;20309;-38
2022/10/25 06:50:46;;;;;;;4.05;1.40;;;20.20;46.30;;;;;;5073575;28;20842;-41
2022/10/25 06:53:18;;;;;;;3.05;1.30;;;20.30;46.40;;;;;;5072833;28;20205;-37
2022/10/25 06:55:49;;;;;;;4.38;1.42;;;20.20;46.40;;;;;;5074110;28;20198;-39
2022/10/25 06:58:20;;;;;;;3.53;1.38;;;20.20;46.40;;;;;;5073162;28;20222;-40
2022/10/25 07:00:50;;;;;;;3.28;1.55;;;20.20;46.40;;;;;;5072859;28;20202;-38
2022/10/25 07:03:28;;;;;;;3.85;1.40;;;20.20;46.40;;;;;;5073339;28;20209;-37
2022/10/25 07:06:02;;;;;;;2.83;1.40;;;20.20;46.40;;;;;;5060442;28;20671;-37
2022/10/25 07:08:35;;;;;;;2.22;1.40;;;20.20;46.40;;;;;;5073322;28;20226;-40
2022/10/25 07:11:06;;;;;;;2.92;1.60;;;20.10;46.30;;;;;;5072925;28;20233;-40
2022/10/25 07:13:37;;;;;;;3.20;1.30;;;20.20;46.40;;;;;;5073946;28;20218;-37
2022/10/25 07:16:09;;;;;;;2.25;1.27;;;20.20;46.40;;;;;;5071957;28;20216;-37
2022/10/25 07:18:40;;;;;;;2.05;1.25;;;20.10;46.30;;;;;;5071904;28;20194;-39
2022/10/25 07:21:13;;;;;;;3.58;1.35;;;20.10;46.30;;;;;;5071700;28;20206;-39
2022/10/25 07:23:46;;;;;;;2.25;1.23;;;20.10;46.30;;;;;;5071418;28;20191;-37
2022/10/25 07:26:18;;;;;;;2.17;1.20;;;20.10;46.30;;;;;;5071732;28;20230;-38
2022/10/25 07:28:50;;;;;;;2.10;1.25;;;20.10;46.30;;;;;;5071390;28;20222;-37
2022/10/25 07:31:23;;;;;;;2.22;1.30;;;20.10;46.30;;;;;;5071637;28;20195;-37
2022/10/25 07:33:54;;;;;;;2.88;1.20;;;20.00;46.30;;;;;;5072015;28;20321;-38
2022/10/25 07:36:25;;;;;;;2.35;1.20;;;20.00;46.30;;;;;;5071654;28;20210;-40
2022/10/25 07:38:58;;;;;;;3.03;1.20;;;20.00;46.30;;;;;;5071763;28;20650;-37
2022/10/25 07:41:29;;;;;;;2.65;1.38;;;20.00;46.40;;;;;;5071673;28;20202;-38
2022/10/25 07:43:59;;;;;;;3.22;1.25;;;19.90;46.30;;;;;;5062566;28;20225;-41
2022/10/25 07:46:30;;;;;;;3.10;1.33;;;19.90;46.30;;;;;;5068667;28;20223;-38
2022/10/25 07:49:01;;;;;;;2.95;1.20;;;19.90;46.30;;;;;;5071476;28;20199;-38
2022/10/25 07:51:32;;;;;;;3.78;1.30;;;19.90;46.30;;;;;;5071717;28;20222;-38
2022/10/25 07:54:04;;;;;;;3.80;1.25;;;19.90;46.30;;;;;;5071725;28;20199;-39
2022/10/25 07:56:35;;;;;;;2.38;1.10;;;19.80;46.40;;;;;;5071868;28;20226;-38
2022/10/25 07:59:06;;;;;;;3.13;1.40;;;19.80;46.40;;;;;;5070780;28;20567;-38
2022/10/25 08:01:37;;;;;;;2.15;1.10;;;19.80;46.30;;;;;;5071188;28;20199;-41
2022/10/25 08:04:08;;;;;;;2.35;1.10;;;19.80;46.30;;;;;;5071073;28;20602;-37
2022/10/25 08:06:38;;;;;;;2.92;1.30;;;19.70;46.40;;;;;;5071440;28;20271;-37
2022/10/25 08:09:11;;;;;;;2.47;1.23;;;19.70;46.30;;;;;;5071441;28;20201;-38
2022/10/25 08:11:42;;;;;;;3.03;1.17;;;19.70;46.40;;;;;;5071644;28;20202;-37
2022/10/25 08:14:12;;;;;;;2.38;1.08;;;19.70;46.40;;;;;;5070872;28;20560;-38
2022/10/25 08:16:43;;;;;;;1.92;1.23;;;19.60;46.60;;;;;;5071069;28;20214;-37
2022/10/25 08:19:14;;;;;;;2.58;1.10;;;19.60;46.30;;;;;;5070856;28;20195;-38
2022/10/25 08:21:45;;;;;;;3.40;1.10;;;19.60;46.30;;;;;;5070928;28;20199;-40
2022/10/25 08:24:17;;;;;;;2.35;1.40;;;19.60;46.30;;;;;;5070866;28;20665;-54
2022/10/25 08:26:49;;;;;;;5.60;1.25;;;19.50;46.30;;;;;;5071012;28;20222;-37
2022/10/25 08:29:19;;;;;;;4.07;1.02;;;19.50;45.80;;;;;;5070725;28;20201;-37
2022/10/25 08:31:50;;;;;;;4.15;1.48;;;19.40;45.50;;;;;;5071049;28;20190;-46
2022/10/25 08:34:21;;;;;;;2.42;1.10;;;19.40;45.80;;;;;;5070348;28;20626;-41
2022/10/25 08:36:52;;;;;;;2.30;1.10;;;19.30;46.00;;;;;;5070739;28;20223;-40
2022/10/25 08:39:24;;;;;;;3.25;1.20;;;19.30;46.10;;;;;;5063830;28;20197;-41
2022/10/25 08:41:57;;;;;;;3.10;1.38;;;19.30;46.20;;;;;;5071218;28;20206;-43
2022/10/25 08:44:36;;;;;;;2.97;1.40;;;19.30;46.20;;;;;;5071028;28;20191;-43
2022/10/25 08:47:15;;;;;;;1.90;0.85;;;19.20;46.10;;;;;;5071763;28;20222;-43
2022/10/25 08:49:54;;;;;;;2.90;1.00;;;19.20;46.20;;;;;;5071117;28;20202;-39
2022/10/25 08:52:31;;;;;;;1.75;1.20;;;19.20;46.20;;;;;;5071464;28;20197;-45
2022/10/25 08:55:07;;;;;;;2.28;1.20;;;19.20;46.20;;;;;;5070877;28;20195;-41
2022/10/25 08:57:45;;;;;;;2.40;0.75;;;19.20;46.20;;;;;;5071673;28;20214;-44
2022/10/25 09:00:19;;;;;;;1.73;1.05;;;19.10;46.30;;;;;;5051317;28;20778;-38
2022/10/25 09:02:53;;;;;;;2.53;1.02;;;19.10;46.30;;;;;;5051862;28;20201;-40
2022/10/25 09:05:38;;;;;;;1.85;1.08;;;19.10;46.30;;;;;;5051729;28;20241;-50
2022/10/25 09:08:35;;;;;;;2.25;0.90;;;19.00;46.40;;;;;;5050301;28;20253;-41
2022/10/25 09:11:20;;;;;;;1.38;0.93;;;19.00;46.40;;;;;;5042253;28;20210;-43
2022/10/25 09:13:56;;;;;;;2.67;1.10;;;18.90;46.30;;;;;;5069775;28;20198;-45
2022/10/25 09:16:33;;;;;;;2.97;1.20;;;18.90;46.30;;;;;;5070871;28;20214;-42
2022/10/25 09:19:10;;;;;;;2.03;1.13;;;18.90;46.40;;;;;;5069398;28;20267;-41
2022/10/25 09:21:44;;;;;;;2.13;1.02;;;18.90;46.40;;;;;;5071325;28;20206;-42
2022/10/25 09:24:29;;;;;;;1.42;0.90;;;18.90;46.40;;;;;;5071017;28;20198;-45
2022/10/25 09:27:08;;;;;;;1.80;0.98;;;18.80;46.40;;;;;;5070472;28;20249;-45
2022/10/25 09:29:41;;;;;;;2.45;0.95;;;18.80;46.40;;;;;;5070400;28;20214;-48
2022/10/25 09:32:20;;;;;;;2.15;1.00;;;18.80;46.40;;;;;;5070495;28;20199;-41
2022/10/25 09:34:51;;;;;;;1.60;0.90;;;18.80;46.40;;;;;;5070747;28;20190;-48
2022/10/25 09:37:27;;;;;;;3.08;1.00;;;18.70;46.40;;;;;;5071078;28;20214;-44
2022/10/25 09:40:02;;;;;;;1.60;0.90;;;18.70;47.10;;;;;;5070374;28;20226;-44
2022/10/25 09:42:39;;;;;;;1.42;1.10;;;18.70;46.50;;;;;;5070531;28;20197;-45
2022/10/25 09:45:16;;;;;;;1.48;0.80;;;18.60;46.50;;;;;;5070700;28;20205;-44
2022/10/25 09:47:53;;;;;;;2.40;1.15;;;18.60;46.50;;;;;;5073624;28;20229;-41
2022/10/25 09:50:29;;;;;;;2.03;0.90;;;18.60;46.60;;;;;;5074709;28;20723;-43
2022/10/25 09:53:12;;;;;;;3.45;1.05;;;18.60;46.60;;;;;;5074350;28;20190;-43
2022/10/25 09:55:54;;;;;;;1.45;0.75;;;18.60;46.60;;;;;;5074228;28;20202;-48
2022/10/25 09:58:30;;;;;;;1.50;1.00;;;18.50;46.60;;;;;;5073932;28;20622;-44
2022/10/25 10:01:02;;;;;;;1.55;1.02;;;18.50;46.60;;;;;;5074957;28;20206;-38
2022/10/25 10:03:34;;;;;;;1.83;0.82;;;18.50;46.60;;;;;;5074597;28;20190;-41
2022/10/25 10:06:10;;;;;;;1.58;0.70;;;18.50;46.60;;;;;;5073295;28;20221;-40
2022/10/25 10:08:45;;;;;;;2.10;1.00;;;18.50;46.60;;;;;;5073119;28;20229;-40
2022/10/25 10:11:19;;;;;;;2.03;1.00;;;18.40;46.60;;;;;;5074083;28;20549;-46
2022/10/25 10:13:57;;;;;;;1.52;0.98;;;18.40;46.70;;;;;;5073337;28;20193;-43
2022/10/25 10:16:31;;;;;;;1.73;0.75;;;18.40;46.70;;;;;;5073672;28;20301;-38
2022/10/25 10:19:18;;;;;;;1.25;0.75;;;18.30;47.20;;;;;;5073518;28;20289;-44
2022/10/25 10:21:51;;;;;;;1.90;0.80;;;18.30;46.70;;;;;;5073717;28;20195;-42
2022/10/25 10:24:23;;;;;;;3.17;1.00;;;18.30;46.70;;;;;;5073161;28;20195;-40
2022/10/25 10:26:57;;;;;;;2.50;0.90;;;18.30;46.70;;;;;;5073009;28;20212;-43
2022/10/25 10:29:31;;;;;;;1.17;0.70;;;18.20;46.70;;;;;;5072304;28;20232;-39
2022/10/25 10:32:05;;;;;;;1.77;0.90;;;18.20;46.70;;;;;;5073209;28;20200;-38
2022/10/25 10:34:42;;;;;;;1.00;0.80;;;18.20;46.70;;;;;;5073675;28;20198;-45
2022/10/25 10:37:18;;;;;;;1.50;0.90;;;18.20;46.70;;;;;;5072978;28;20690;-44
2022/10/25 10:39:54;;;;;;;1.83;0.85;;;18.20;46.70;;;;;;5073112;28;20230;-42
2022/10/25 10:42:33;;;;;;;1.65;0.95;;;18.20;46.70;;;;;;5073042;28;20202;-43
2022/10/25 10:45:16;;;;;;;2.10;1.00;;;18.10;46.70;;;;;;5072663;28;20217;-42
2022/10/25 10:47:57;;;;;;;1.77;1.00;;;18.10;46.70;;;;;;5072675;28;20210;-40
2022/10/25 10:50:31;;;;;;;1.80;1.23;;;18.10;46.70;;;;;;5072950;28;20194;-42
2022/10/25 10:53:04;;;;;;;2.47;1.60;;;18.10;46.70;;;;;;5072017;28;20197;-41
2022/10/25 10:55:36;;;;;;;2.67;1.65;;;18.10;46.80;;;;;;5072091;28;20194;-41
2022/10/25 10:58:09;;;;;;;2.03;1.35;;;18.00;46.70;;;;;;5072766;28;20230;-48
2022/10/25 11:00:49;;;;;;;2.70;1.52;;;18.00;46.80;;;;;;5072072;28;20218;-42
2022/10/25 11:03:38;;;;;;;1.95;1.40;;;18.00;46.80;;;;;;5072512;28;20195;-40
2022/10/25 11:06:12;;;;;;;1.63;1.20;;;17.90;46.80;;;;;;5072646;28;20195;-43
2022/10/25 11:08:43;;;;;;;1.63;1.50;;;17.90;46.70;;;;;;5072410;28;20229;-41
2022/10/25 11:11:19;;;;;;;3.20;1.52;;;17.90;46.70;;;;;;5072430;28;20205;-40
2022/10/25 11:14:00;;;;;;;3.85;2.00;;;17.90;46.80;;;;;;5071960;28;20202;-39
2022/10/25 11:16:49;;;;;;;1.95;1.60;;;17.90;46.80;;;;;;5072407;28;20231;-41
2022/10/25 11:19:57;;;;;;;2.95;1.80;;;17.80;46.70;;;;;;5071789;28;20191;-43
2022/10/25 11:22:45;;;;;;;2.10;1.50;;;17.80;46.70;;;;;;5051635;28;20199;-43
2022/10/25 11:25:30;;;;;;;2.25;1.50;;;17.80;46.70;;;;;;5072442;28;20246;-41
2022/10/25 11:28:13;;;;;;;3.00;1.85;;;17.70;46.70;;;;;;5072293;28;20233;-40
2022/10/25 11:30:54;;;;;;;3.63;1.60;;;17.70;46.70;;;;;;5071921;28;20285;-43
2022/10/25 11:33:49;;;;;;;2.03;1.45;;;17.70;46.70;;;;;;5071843;28;20191;-41
2022/10/25 11:36:30;;;;;;;1.90;1.30;;;17.70;46.80;;;;;;5071744;28;20222;-40
2022/10/25 11:39:10;;;;;;;2.83;1.67;;;17.60;46.80;;;;;;5071655;28;20199;-43
2022/10/25 11:41:49;;;;;;;2.83;1.42;;;17.60;46.80;;;;;;5071970;28;20230;-41
2022/10/25 11:44:45;;;;;;;3.15;1.40;;;17.60;46.80;;;;;;5071462;28;20191;-40
2022/10/25 11:47:25;;;;;;;1.88;1.30;;;17.60;46.80;;;;;;5070749;28;20596;-41
2022/10/25 11:50:14;;;;;;;2.50;1.60;;;17.60;46.80;;;;;;5071481;28;20222;-40
2022/10/25 11:53:15;;;;;;;2.05;1.33;;;17.50;46.80;;;;;;5071620;28;20201;-41
2022/10/25 11:55:50;;;;;;;1.85;1.20;;;17.50;46.80;;;;;;5071544;28;20205;-44
2022/10/25 11:58:38;;;;;;;2.20;1.60;;;17.50;46.80;;;;;;5071278;28;20214;-39
2022/10/25 12:01:21;;;;;;;2.08;1.40;;;17.50;46.90;;;;;;5053381;28;20203;-45
2022/10/25 12:04:23;;;;;;;3.47;1.52;;;17.40;46.80;;;;;;5050988;28;20199;-38
2022/10/25 12:07:04;;;;;;;1.95;1.15;;;17.40;46.90;;;;;;5051344;28;20211;-45
2022/10/25 12:09:44;;;;;;;2.58;1.30;;;17.40;46.90;;;;;;5050379;28;20277;-45
2022/10/25 12:12:18;;;;;;;1.52;1.13;;;17.40;46.90;;;;;;5051002;28;20202;-40
2022/10/25 12:14:54;;;;;;;2.47;1.40;;;17.30;46.90;;;;;;5056893;28;20201;-40
2022/10/25 12:17:29;;;;;;;2.75;1.45;;;17.30;46.90;;;;;;5070991;28;20218;-46
2022/10/25 12:20:03;;;;;;;2.47;1.30;;;17.30;47.00;;;;;;5070759;28;20202;-41
2022/10/25 12:22:39;;;;;;;1.92;1.27;;;17.30;47.00;;;;;;5071084;28;20199;-38
2022/10/25 12:25:16;;;;;;;2.05;1.40;;;17.30;47.00;;;;;;5071316;28;20205;-42
2022/10/25 12:27:50;;;;;;;2.35;1.35;;;17.20;47.00;;;;;;5071170;28;20692;-40
2022/10/25 12:30:21;;;;;;;1.70;1.10;;;17.20;47.00;;;;;;5060802;28;20218;-43
2022/10/25 12:32:57;;;;;;;2.45;1.38;;;17.20;47.00;;;;;;5070434;28;20198;-48
2022/10/25 12:35:31;;;;;;;1.67;1.17;;;17.20;47.00;;;;;;5070398;28;20190;-45
2022/10/25 12:38:13;;;;;;;2.03;1.40;;;17.20;47.00;;;;;;5070568;28;20218;-41
2022/10/25 12:40:48;;;;;;;2.22;1.63;;;17.20;47.00;;;;;;5070721;28;20190;-41
2022/10/25 12:43:25;;;;;;;2.17;1.30;;;17.10;47.00;;;;;;5070851;28;20213;-43
2022/10/25 12:46:10;;;;;;;1.98;1.30;;;17.10;47.60;;;;;;5070401;28;20205;-39
2022/10/25 12:49:13;;;;;;;1.75;1.10;;;17.10;47.00;;;;;;5070418;28;20214;-41
2022/10/25 12:52:02;;;;;;;2.38;1.30;;;17.10;47.10;;;;;;5017823;28;20195;-40
2022/10/25 12:54:58;;;;;;;2.10;1.40;;;17.10;47.00;;;;;;5050457;28;20195;-40
2022/10/25 12:57:36;;;;;;;2.28;0.93;;;17.10;47.00;;;;;;5050375;28;20218;-47
2022/10/25 13:00:15;;;;;;;2.70;1.30;;;17.10;47.00;;;;;;5069475;28;20209;-44
2022/10/25 13:03:17;;;;;;;2.53;1.30;;;17.10;47.00;;;;;;5070165;28;20228;-42
2022/10/25 13:06:30;;;;;;;2.00;1.23;;;17.10;47.00;;;;;;5065467;28;20202;-38
2022/10/25 13:09:06;;;;;;;1.98;1.50;;;17.00;46.90;;;;;;5059341;28;20218;-40
2022/10/25 13:11:42;;;;;;;2.28;1.17;;;17.00;46.90;;;;;;5069983;28;20234;-44
2022/10/25 13:14:27;;;;;;;1.75;1.30;;;17.00;46.90;;;;;;5070114;28;20205;-39
2022/10/25 13:17:29;;;;;;;1.58;1.10;;;17.00;46.90;;;;;;5062433;28;20210;-43
2022/10/25 13:20:43;;;;;;;2.78;1.50;;;17.00;47.00;;;;;;5070048;28;20190;-41
2022/10/25 13:24:01;;;;;;;1.60;1.10;;;16.90;46.90;;;;;;5068051;28;20285;-44
2022/10/25 13:26:50;;;;;;;2.55;1.27;;;16.90;46.90;;;;;;5069942;28;20221;-42
2022/10/25 13:30:01;;;;;;;1.83;1.30;;;16.90;46.90;;;;;;5070020;28;20738;-38
2022/10/25 13:32:32;;;;;;;2.05;1.00;;;16.90;46.90;;;;;;4986468;28;20202;-44